createdAt,value
2023-04-10T00:02:11.855Z,8.10
2023-04-10T00:04:38.757Z,8.10
2023-04-10T00:07:05.663Z,8.10
2023-04-10T00:09:32.375Z,8.10
2023-04-10T00:11:59.572Z,8.10
2023-04-10T00:14:26.396Z,8.10
2023-04-10T00:16:53.271Z,8.00
2023-04-10T00:19:20.401Z,7.60
2023-04-10T00:21:47.146Z,7.40
2023-04-10T00:24:13.999Z,7.30
2023-04-10T00:26:40.765Z,7.30
2023-04-10T00:29:08.178Z,7.40
2023-04-10T00:31:35.480Z,7.30
2023-04-10T00:34:02.316Z,7.10
2023-04-10T00:36:28.999Z,7.10
2023-04-10T00:38:55.718Z,7.00
2023-04-10T00:41:23.874Z,7.30
2023-04-10T00:43:51.057Z,7.40
2023-04-10T00:46:18.037Z,7.40
2023-04-10T00:48:45.139Z,7.20
2023-04-10T00:51:12.151Z,7.00
2023-04-10T00:53:38.840Z,6.90
2023-04-10T00:56:07.167Z,6.90
2023-04-10T00:58:33.886Z,6.90
2023-04-10T01:01:01.062Z,6.90
2023-04-10T01:03:28.090Z,6.80
2023-04-10T01:06:35.269Z,6.80
2023-04-10T01:09:37.445Z,6.70
2023-04-10T01:12:26.880Z,6.70
2023-04-10T01:15:17.682Z,6.50
2023-04-10T01:17:57.150Z,6.70
2023-04-10T01:20:26.718Z,6.70
2023-04-10T01:23:21.460Z,7.00
2023-04-10T01:26:01.263Z,7.00
2023-04-10T01:28:57.623Z,7.00
2023-04-10T01:31:32.748Z,7.10
2023-04-10T01:34:07.364Z,6.90
2023-04-10T01:36:47.246Z,6.90
2023-04-10T01:39:14.792Z,7.00
2023-04-10T01:41:44.017Z,6.80
2023-04-10T01:44:14.843Z,6.50
2023-04-10T01:46:43.757Z,6.40
2023-04-10T01:49:10.929Z,6.50
2023-04-10T01:51:38.175Z,6.40
2023-04-10T01:54:07.220Z,6.30
2023-04-10T01:56:34.459Z,6.60
2023-04-10T01:59:03.893Z,6.50
2023-04-10T02:01:33.551Z,6.40
2023-04-10T02:04:00.708Z,6.50
2023-04-10T02:06:44.917Z,6.60
2023-04-10T02:09:47.888Z,6.40
2023-04-10T02:15:10.038Z,6.20
2023-04-10T02:17:37.432Z,6.00
2023-04-10T02:20:06.773Z,6.10
2023-04-10T02:22:34.283Z,6.10
2023-04-10T02:25:03.801Z,6.20
2023-04-10T02:27:31.448Z,6.30
2023-04-10T02:29:58.197Z,6.30
2023-04-10T02:32:25.239Z,6.30
2023-04-10T02:34:52.075Z,6.30
2023-04-10T02:37:18.914Z,6.10
2023-04-10T02:39:46.056Z,6.20
2023-04-10T02:42:12.815Z,6.20
2023-04-10T02:44:39.672Z,6.20
2023-04-10T02:47:07.278Z,6.40
2023-04-10T02:49:35.019Z,6.10
2023-04-10T02:52:02.255Z,6.20
2023-04-10T02:54:29.141Z,6.00
2023-04-10T02:56:57.478Z,6.00
2023-04-10T02:59:24.353Z,6.10
2023-04-10T03:01:52.352Z,6.00
2023-04-10T03:04:19.575Z,5.80
2023-04-10T03:06:46.552Z,6.00
2023-04-10T03:09:13.376Z,6.00
2023-04-10T03:11:40.404Z,6.00
2023-04-10T03:14:09.671Z,5.80
2023-04-10T03:16:36.517Z,6.00
2023-04-10T03:19:03.764Z,6.20
2023-04-10T03:21:30.519Z,5.40
2023-04-10T03:23:57.352Z,5.30
2023-04-10T03:26:24.259Z,5.60
2023-04-10T03:28:51.693Z,6.00
2023-04-10T03:31:18.470Z,5.90
2023-04-10T03:33:45.355Z,5.90
2023-04-10T03:36:12.262Z,6.10
2023-04-10T03:38:39.072Z,6.00
2023-04-10T03:41:06.399Z,6.10
2023-04-10T03:43:33.536Z,6.10
2023-04-10T03:46:01.686Z,6.20
2023-04-10T03:48:30.532Z,6.10
2023-04-10T03:50:57.312Z,6.00
2023-04-10T03:53:24.939Z,5.90
2023-04-10T03:55:54.498Z,5.70
2023-04-10T03:58:21.620Z,5.80
2023-04-10T04:00:48.530Z,5.40
2023-04-10T04:03:16.376Z,5.50
2023-04-10T04:05:43.217Z,5.30
2023-04-10T04:08:09.953Z,5.20
2023-04-10T04:10:36.671Z,5.20
2023-04-10T04:13:03.439Z,5.50
2023-04-10T04:15:30.275Z,5.60
2023-04-10T04:17:58.014Z,5.40
2023-04-10T04:20:24.940Z,5.40
2023-04-10T04:22:51.668Z,5.30
2023-04-10T04:25:19.735Z,5.30
2023-04-10T04:27:46.454Z,5.30
2023-04-10T04:30:13.245Z,5.20
2023-04-10T04:32:39.991Z,5.20
2023-04-10T04:35:07.380Z,5.10
2023-04-10T04:37:34.165Z,5.10
2023-04-10T04:40:01.559Z,5.30
2023-04-10T04:42:28.289Z,5.30
2023-04-10T04:44:55.063Z,5.30
2023-04-10T04:47:23.052Z,5.20
2023-04-10T04:49:49.842Z,5.20
2023-04-10T04:52:16.490Z,5.00
2023-04-10T04:54:43.332Z,4.80
2023-04-10T04:57:10.028Z,4.70
2023-04-10T04:59:38.229Z,4.50
2023-04-10T05:02:05.162Z,4.40
2023-04-10T05:04:31.994Z,4.60
2023-04-10T05:06:58.734Z,4.60
2023-04-10T05:09:25.441Z,4.60
2023-04-10T05:11:54.076Z,4.60
2023-04-10T05:14:22.267Z,4.80
2023-04-10T05:16:49.016Z,4.90
2023-04-10T05:19:16.332Z,5.20
2023-04-10T05:21:43.316Z,5.10
2023-04-10T05:24:10.164Z,4.90
2023-04-10T05:26:36.893Z,5.00
2023-04-10T05:29:06.441Z,5.10
2023-04-10T05:31:33.213Z,5.30
2023-04-10T05:34:00.240Z,5.20
2023-04-10T05:36:27.607Z,5.30
2023-04-10T05:38:54.679Z,5.10
2023-04-10T05:41:22.004Z,5.20
2023-04-10T05:43:49.770Z,5.10
2023-04-10T05:46:16.531Z,5.00
2023-04-10T05:48:43.242Z,5.20
2023-04-10T05:51:10.006Z,5.30
2023-04-10T05:53:36.833Z,5.20
2023-04-10T05:56:03.686Z,5.00
2023-04-10T05:58:30.519Z,4.90
2023-04-10T06:00:58.017Z,4.90
2023-04-10T06:03:27.539Z,4.90
2023-04-10T06:05:54.732Z,4.70
2023-04-10T06:08:22.836Z,4.60
2023-04-10T06:10:49.618Z,4.80
2023-04-10T06:13:16.757Z,4.90
2023-04-10T06:15:43.463Z,4.90
2023-04-10T06:18:10.459Z,4.90
2023-04-10T06:20:37.314Z,4.90
2023-04-10T06:23:04.366Z,5.00
2023-04-10T06:25:31.107Z,5.00
2023-04-10T06:27:58.056Z,5.20
2023-04-10T06:30:24.721Z,5.30
2023-04-10T06:32:51.499Z,5.30
2023-04-10T06:35:18.474Z,5.40
2023-04-10T06:37:45.328Z,5.60
2023-04-10T06:40:16.110Z,5.80
2023-04-10T06:42:43.084Z,5.90
2023-04-10T06:45:10.212Z,5.90
2023-04-10T06:47:37.015Z,5.90
2023-04-10T06:50:03.967Z,5.90
2023-04-10T06:52:30.665Z,6.00
2023-04-10T06:54:57.485Z,6.00
2023-04-10T06:57:24.312Z,6.10
2023-04-10T06:59:51.074Z,6.10
2023-04-10T07:02:17.794Z,6.20
2023-04-10T07:04:44.555Z,6.30
2023-04-10T07:07:13.297Z,6.40
2023-04-10T07:09:40.374Z,6.50
2023-04-10T07:12:07.176Z,6.60
2023-04-10T07:14:35.004Z,6.70
2023-04-10T07:17:02.179Z,6.80
2023-04-10T07:19:29.098Z,6.80
2023-04-10T07:21:56.042Z,6.90
2023-04-10T07:24:22.712Z,7.10
2023-04-10T07:26:49.478Z,7.20
2023-04-10T07:29:16.637Z,7.40
2023-04-10T07:31:43.548Z,7.40
2023-04-10T07:34:11.758Z,7.50
2023-04-10T07:36:38.730Z,7.50
2023-04-10T07:39:05.572Z,7.60
2023-04-10T07:41:32.317Z,7.60
2023-04-10T07:43:58.983Z,7.80
2023-04-10T07:46:26.769Z,7.80
2023-04-10T07:48:55.647Z,7.80
2023-04-10T07:51:22.963Z,7.90
2023-04-10T07:53:49.884Z,8.00
2023-04-10T07:56:20.782Z,8.00
2023-04-10T07:58:48.502Z,8.20
2023-04-10T08:01:15.832Z,8.30
2023-04-10T08:03:45.678Z,8.30
2023-04-10T08:06:12.971Z,8.40
2023-04-10T08:08:41.346Z,8.60
2023-04-10T08:11:32.576Z,8.70
2023-04-10T08:14:05.570Z,8.80
2023-04-10T08:16:35.627Z,8.90
2023-04-10T08:19:03.906Z,8.90
2023-04-10T08:21:32.179Z,9.00
2023-04-10T08:24:02.706Z,9.00
2023-04-10T08:26:30.178Z,9.20
2023-04-10T08:28:59.862Z,9.20
2023-04-10T08:31:28.827Z,9.30
2023-04-10T08:33:56.770Z,9.40
2023-04-10T08:36:23.822Z,9.60
2023-04-10T08:38:50.609Z,9.60
2023-04-10T08:41:19.565Z,9.90
2023-04-10T08:43:46.763Z,10.00
2023-04-10T08:46:14.849Z,10.20
2023-04-10T08:48:53.159Z,10.30
2023-04-10T08:51:26.389Z,10.40
2023-04-10T08:53:58.444Z,10.50
2023-04-10T08:56:26.128Z,10.60
2023-04-10T08:58:53.570Z,10.50
2023-04-10T09:01:21.658Z,10.50
2023-04-10T09:03:49.015Z,10.50
2023-04-10T09:06:15.948Z,10.70
2023-04-10T09:08:42.725Z,10.80
2023-04-10T09:11:09.460Z,10.80
2023-04-10T09:13:41.570Z,11.00
2023-04-10T09:16:09.720Z,11.10
2023-04-10T09:18:45.524Z,11.20
2023-04-10T09:21:18.452Z,11.20
2023-04-10T09:23:46.996Z,11.30
2023-04-10T09:26:31.203Z,11.40
2023-04-10T09:29:01.739Z,11.50
2023-04-10T09:31:36.441Z,11.50
2023-04-10T09:34:16.397Z,11.60
2023-04-10T09:36:45.001Z,11.70
2023-04-10T09:39:12.283Z,11.80
2023-04-10T09:41:53.455Z,11.80
2023-04-10T09:44:33.501Z,12.00
2023-04-10T09:47:15.339Z,12.10
2023-04-10T09:49:49.829Z,12.20
2023-04-10T09:52:22.372Z,12.30
2023-04-10T09:54:49.039Z,12.40
2023-04-10T09:57:19.238Z,12.50
2023-04-10T09:59:54.827Z,12.70
2023-04-10T10:02:24.869Z,12.80
2023-04-10T10:04:52.943Z,13.00
2023-04-10T10:07:21.547Z,13.20
2023-04-10T10:09:50.913Z,13.30
2023-04-10T10:12:34.503Z,13.40
2023-04-10T10:15:11.669Z,13.50
2023-04-10T10:17:51.281Z,13.70
2023-04-10T10:20:20.448Z,13.80
2023-04-10T10:22:50.132Z,13.90
2023-04-10T10:25:18.482Z,14.00
2023-04-10T10:27:49.408Z,14.20
2023-04-10T10:30:29.420Z,14.30
2023-04-10T10:32:58.904Z,14.30
2023-04-10T10:35:29.511Z,14.40
2023-04-10T10:37:59.919Z,14.50
2023-04-10T10:40:29.536Z,14.70
2023-04-10T10:43:12.678Z,14.80
2023-04-10T10:46:01.249Z,15.00
2023-04-10T10:48:28.258Z,15.10
2023-04-10T10:51:00.392Z,15.00
2023-04-10T10:53:44.073Z,15.10
2023-04-10T10:56:19.992Z,15.20
2023-04-10T10:58:56.052Z,15.30
2023-04-10T11:01:23.875Z,15.50
2023-04-10T11:03:51.234Z,15.60
2023-04-10T11:06:20.173Z,15.70
2023-04-10T11:08:49.386Z,15.70
2023-04-10T11:11:24.695Z,15.80
2023-04-10T11:13:56.551Z,15.80
2023-04-10T11:16:40.851Z,15.70
2023-04-10T11:19:15.956Z,15.80
2023-04-10T11:22:09.174Z,16.00
2023-04-10T11:24:57.541Z,16.10
2023-04-10T11:27:38.575Z,16.30
2023-04-10T11:30:27.109Z,16.50
2023-04-10T11:32:55.250Z,16.50
2023-04-10T11:35:22.402Z,16.50
2023-04-10T11:37:49.194Z,16.70
2023-04-10T11:40:16.821Z,16.90
2023-04-10T11:42:43.627Z,16.90
2023-04-10T11:45:27.531Z,17.00
2023-04-10T11:47:55.154Z,16.80
2023-04-10T11:50:22.242Z,16.70
2023-04-10T11:52:53.973Z,17.00
2023-04-10T11:55:35.537Z,17.10
2023-04-10T11:58:02.270Z,17.20
2023-04-10T12:00:29.049Z,17.30
2023-04-10T12:02:56.192Z,17.30
2023-04-10T12:05:23.041Z,17.40
2023-04-10T12:07:50.449Z,17.50
2023-04-10T12:10:17.303Z,17.50
2023-04-10T12:12:44.230Z,17.60
2023-04-10T12:15:27.713Z,17.70
2023-04-10T12:17:55.465Z,17.70
2023-04-10T12:20:26.586Z,17.70
2023-04-10T12:22:56.693Z,17.80
2023-04-10T12:25:23.495Z,17.80
2023-04-10T12:27:51.746Z,17.80
2023-04-10T12:30:18.731Z,18.00
2023-04-10T12:32:55.545Z,18.00
2023-04-10T12:35:38.761Z,18.20
2023-04-10T12:38:05.681Z,18.30
2023-04-10T12:40:32.397Z,18.30
2023-04-10T12:42:59.155Z,18.50
2023-04-10T12:45:45.473Z,18.40
2023-04-10T12:48:12.462Z,18.60
2023-04-10T12:50:49.195Z,18.50
2023-04-10T12:53:16.251Z,18.40
2023-04-10T12:56:00.170Z,18.20
2023-04-10T12:58:31.629Z,18.40
2023-04-10T13:01:03.267Z,18.40
2023-04-10T13:03:30.307Z,18.40
2023-04-10T13:05:57.138Z,18.50
2023-04-10T13:08:23.917Z,18.50
2023-04-10T13:10:50.991Z,18.50
2023-04-10T13:13:17.996Z,18.60
2023-04-10T13:15:45.212Z,18.60
2023-04-10T13:18:12.113Z,18.60
2023-04-10T13:20:40.629Z,18.70
2023-04-10T13:23:08.242Z,18.70
2023-04-10T13:25:39.827Z,18.80
2023-04-10T13:28:11.103Z,18.70
2023-04-10T13:30:42.276Z,18.70
2023-04-10T13:33:09.715Z,18.60
2023-04-10T13:35:36.647Z,18.60
2023-04-10T13:38:04.310Z,18.50
2023-04-10T13:40:31.107Z,18.50
2023-04-10T13:42:57.872Z,18.50
2023-04-10T13:45:24.693Z,18.40
2023-04-10T13:47:51.442Z,18.40
2023-04-10T13:50:18.291Z,18.50
2023-04-10T13:52:45.100Z,18.50
2023-04-10T13:55:11.855Z,18.30
2023-04-10T13:57:38.955Z,18.30
2023-04-10T14:00:07.075Z,18.30
2023-04-10T14:02:34.128Z,18.30
2023-04-10T14:05:00.851Z,18.20
2023-04-10T14:07:27.570Z,18.20
2023-04-10T14:09:54.374Z,18.30
2023-04-10T14:12:23.140Z,18.40
2023-04-10T14:14:50.364Z,18.50
2023-04-10T14:17:17.333Z,18.60
2023-04-10T14:19:46.403Z,18.60
2023-04-10T14:22:13.481Z,18.50
2023-04-10T14:24:40.313Z,18.50
2023-04-10T14:27:07.045Z,18.60
2023-04-10T14:29:38.919Z,18.60
2023-04-10T14:32:09.688Z,18.80
2023-04-10T14:34:42.297Z,18.90
2023-04-10T14:37:10.660Z,18.90
2023-04-10T14:39:43.484Z,18.80
2023-04-10T14:42:10.672Z,18.90
2023-04-10T14:44:37.400Z,18.90
2023-04-10T14:47:08.723Z,19.00
2023-04-10T14:49:35.478Z,18.90
2023-04-10T14:52:02.217Z,18.90
2023-04-10T14:54:28.988Z,18.80
2023-04-10T14:56:57.291Z,18.80
2023-04-10T14:59:24.066Z,18.70
2023-04-10T15:01:51.582Z,18.70
2023-04-10T15:04:18.356Z,18.70
2023-04-10T15:06:45.512Z,18.60
2023-04-10T15:09:12.204Z,18.60
2023-04-10T15:11:39.014Z,18.50
2023-04-10T15:14:05.734Z,18.40
2023-04-10T15:16:32.498Z,18.40
2023-04-10T15:18:59.227Z,18.40
2023-04-10T15:21:27.316Z,18.30
2023-04-10T15:23:54.281Z,18.30
2023-04-10T15:26:21.339Z,18.30
2023-04-10T15:28:48.143Z,18.20
2023-04-10T15:31:15.823Z,18.20
2023-04-10T15:33:42.645Z,18.10
2023-04-10T15:36:09.707Z,18.10
2023-04-10T15:38:36.645Z,18.10
2023-04-10T15:41:13.532Z,18.00
2023-04-10T15:43:40.277Z,18.00
2023-04-10T15:46:07.118Z,18.00
2023-04-10T15:48:34.012Z,18.00
2023-04-10T15:51:06.922Z,17.90
2023-04-10T15:53:34.664Z,17.90
2023-04-10T15:56:03.548Z,17.90
2023-04-10T15:58:30.273Z,17.90
2023-04-10T16:00:56.914Z,17.90
2023-04-10T16:03:23.838Z,18.00
2023-04-10T16:05:51.342Z,17.90
2023-04-10T16:08:18.327Z,17.80
2023-04-10T16:10:45.224Z,17.90
2023-04-10T16:13:11.994Z,17.90
2023-04-10T16:15:39.066Z,17.90
2023-04-10T16:18:07.673Z,17.90
2023-04-10T16:20:34.494Z,17.90
2023-04-10T16:23:01.267Z,17.90
2023-04-10T16:25:28.285Z,17.90
2023-04-10T16:27:55.660Z,17.80
2023-04-10T16:30:23.510Z,17.80
2023-04-10T16:32:51.866Z,17.80
2023-04-10T16:35:19.632Z,17.70
2023-04-10T16:37:46.718Z,17.60
2023-04-10T16:40:13.854Z,17.60
2023-04-10T16:42:40.762Z,17.50
2023-04-10T16:45:08.599Z,17.50
2023-04-10T16:47:35.719Z,17.50
2023-04-10T16:50:02.826Z,17.50
2023-04-10T16:52:29.612Z,17.40
2023-04-10T16:54:56.443Z,17.40
2023-04-10T16:57:23.175Z,17.30
2023-04-10T16:59:49.889Z,17.30
2023-04-10T17:02:16.697Z,17.20
2023-04-10T17:04:43.468Z,17.20
2023-04-10T17:07:10.213Z,17.20
2023-04-10T17:09:37.869Z,17.20
2023-04-10T17:12:04.589Z,17.10
2023-04-10T17:14:31.506Z,17.00
2023-04-10T17:16:58.191Z,17.00
2023-04-10T17:19:25.054Z,17.00
2023-04-10T17:21:52.285Z,16.90
2023-04-10T17:24:19.098Z,16.90
2023-04-10T17:26:45.868Z,16.90
2023-04-10T17:29:12.578Z,16.80
2023-04-10T17:31:39.535Z,16.80
2023-04-10T17:34:06.298Z,16.80
2023-04-10T17:36:33.121Z,16.70
2023-04-10T17:39:00.937Z,16.70
2023-04-10T17:41:27.755Z,16.70
2023-04-10T17:43:54.600Z,16.60
2023-04-10T17:46:21.560Z,16.60
2023-04-10T17:48:48.315Z,16.60
2023-04-10T17:51:15.290Z,16.60
2023-04-10T17:53:42.091Z,16.50
2023-04-10T17:56:16.581Z,16.50
2023-04-10T17:58:43.264Z,16.40
2023-04-10T18:01:09.971Z,16.40
2023-04-10T18:03:36.798Z,16.30
2023-04-10T18:06:03.868Z,16.30
2023-04-10T18:08:30.595Z,16.30
2023-04-10T18:10:57.289Z,16.30
2023-04-10T18:13:23.991Z,16.20
2023-04-10T18:15:50.694Z,16.20
2023-04-10T18:18:17.456Z,16.10
2023-04-10T18:20:44.141Z,16.10
2023-04-10T18:23:11.012Z,16.10
2023-04-10T18:25:37.689Z,16.00
2023-04-10T18:28:14.404Z,16.00
2023-04-10T18:30:41.763Z,16.00
2023-04-10T18:33:11.028Z,15.90
2023-04-10T18:35:38.406Z,15.90
2023-04-10T18:38:05.196Z,15.80
2023-04-10T18:40:31.890Z,15.80
2023-04-10T18:42:59.720Z,15.80
2023-04-10T18:45:26.400Z,15.80
2023-04-10T18:47:53.174Z,15.70
2023-04-10T18:50:19.896Z,15.70
2023-04-10T18:52:46.851Z,15.70
2023-04-10T18:55:13.693Z,15.70
2023-04-10T18:57:40.387Z,15.60
2023-04-10T19:00:08.637Z,15.60
2023-04-10T19:02:35.637Z,15.60
2023-04-10T19:05:02.372Z,15.50
2023-04-10T19:07:29.064Z,15.50
2023-04-10T19:09:55.781Z,15.50
2023-04-10T19:12:22.452Z,15.40
2023-04-10T19:14:49.191Z,15.40
2023-04-10T19:17:15.915Z,15.40
2023-04-10T19:19:42.942Z,15.30
2023-04-10T19:22:09.673Z,15.30
2023-04-10T19:24:36.362Z,15.30
2023-04-10T19:27:03.044Z,15.30
2023-04-10T19:29:31.045Z,15.30
2023-04-10T19:31:57.755Z,15.20
2023-04-10T19:34:24.565Z,15.30
2023-04-10T19:36:51.228Z,15.20
2023-04-10T19:39:17.940Z,15.20
2023-04-10T19:41:44.689Z,15.20
2023-04-10T19:44:11.419Z,15.30
2023-04-10T19:46:38.123Z,15.20
2023-04-10T19:49:05.128Z,15.20
2023-04-10T19:51:32.329Z,15.20
2023-04-10T19:53:59.401Z,15.20
2023-04-10T19:56:27.708Z,15.10
2023-04-10T19:58:54.393Z,14.90
2023-04-10T20:01:24.136Z,14.90
2023-04-10T20:03:51.251Z,14.80
2023-04-10T20:06:18.281Z,14.80
2023-04-10T20:08:45.220Z,14.80
2023-04-10T20:11:11.852Z,14.80
2023-04-10T20:13:40.179Z,14.70
2023-04-10T20:16:07.730Z,14.60
2023-04-10T20:18:34.698Z,14.50
2023-04-10T20:21:01.499Z,14.50
2023-04-10T20:23:28.257Z,14.50
2023-04-10T20:25:54.996Z,14.30
2023-04-10T20:28:21.637Z,14.30
2023-04-10T20:30:48.316Z,14.20
2023-04-10T20:33:14.992Z,14.20
2023-04-10T20:35:41.885Z,14.20
2023-04-10T20:38:08.616Z,14.20
2023-04-10T20:40:35.942Z,14.20
2023-04-10T20:43:02.713Z,14.30
2023-04-10T20:45:29.374Z,14.10
2023-04-10T20:47:57.724Z,14.10
2023-04-10T20:50:24.904Z,14.00
2023-04-10T20:52:51.550Z,14.00
2023-04-10T20:55:18.687Z,14.00
2023-04-10T20:57:45.458Z,14.00
2023-04-10T21:00:12.586Z,14.00
2023-04-10T21:02:39.732Z,13.90
2023-04-10T21:05:25.160Z,13.90
2023-04-10T21:07:51.885Z,13.90
2023-04-10T21:10:18.648Z,13.90
2023-04-10T21:12:45.444Z,13.90
2023-04-10T21:15:12.103Z,13.90
2023-04-10T21:17:38.886Z,13.90
2023-04-10T21:20:06.336Z,13.90
2023-04-10T21:22:33.561Z,13.90
2023-04-10T21:25:00.241Z,13.90
2023-04-10T21:27:26.921Z,13.90
2023-04-10T21:29:53.577Z,13.90
2023-04-10T21:32:20.677Z,13.90
2023-04-10T21:34:47.401Z,13.90
2023-04-10T21:37:14.240Z,14.00
2023-04-10T21:39:41.396Z,14.00
2023-04-10T21:42:08.062Z,14.00
2023-04-10T21:44:34.768Z,14.00
2023-04-10T21:47:01.458Z,14.00
2023-04-10T21:49:28.201Z,14.00
2023-04-10T21:51:55.256Z,14.00
2023-04-10T21:54:24.055Z,14.00
2023-04-10T21:56:50.769Z,14.00
2023-04-10T21:59:17.467Z,13.90
2023-04-10T22:01:44.297Z,14.00
2023-04-10T22:04:11.372Z,14.00
2023-04-10T22:06:38.118Z,14.10
2023-04-10T22:09:04.919Z,14.00
2023-04-10T22:11:31.656Z,14.00
2023-04-10T22:14:05.553Z,14.00
2023-04-10T22:16:39.687Z,14.00
2023-04-10T22:19:06.377Z,14.00
2023-04-10T22:21:33.017Z,14.00
2023-04-10T22:23:59.651Z,14.00
2023-04-10T22:26:26.523Z,14.00
2023-04-10T22:28:54.238Z,14.00
2023-04-10T22:31:21.286Z,14.00
2023-04-10T22:33:49.266Z,14.00
2023-04-10T22:36:15.921Z,14.00
2023-04-10T22:38:42.816Z,14.10
2023-04-10T22:41:10.865Z,14.10
2023-04-10T22:43:37.628Z,14.00
2023-04-10T22:46:04.476Z,14.10
2023-04-10T22:48:32.186Z,14.10
2023-04-10T22:50:58.873Z,14.10
2023-04-10T22:53:27.417Z,14.00
2023-04-10T22:55:54.110Z,14.00
2023-04-10T22:58:20.948Z,13.90
2023-04-10T23:00:47.594Z,13.90
2023-04-10T23:03:14.365Z,13.90
2023-04-10T23:05:41.276Z,13.90
2023-04-10T23:08:07.999Z,13.90
2023-04-10T23:10:34.994Z,13.90
2023-04-10T23:13:01.705Z,14.00
2023-04-10T23:15:28.425Z,14.00
2023-04-10T23:17:55.808Z,14.10
2023-04-10T23:20:22.774Z,14.10
2023-04-10T23:22:49.431Z,14.20
2023-04-10T23:25:16.187Z,14.20
2023-04-10T23:27:42.836Z,14.20
2023-04-10T23:30:09.758Z,14.20
2023-04-10T23:32:36.430Z,14.20
2023-04-10T23:35:03.367Z,14.20
2023-04-10T23:37:32.058Z,14.10
2023-04-10T23:39:58.802Z,14.10
2023-04-10T23:42:25.650Z,14.10
2023-04-10T23:44:52.359Z,14.10
2023-04-10T23:47:19.056Z,14.00
2023-04-10T23:49:45.846Z,14.00
2023-04-10T23:52:12.622Z,13.90
2023-04-10T23:54:39.855Z,13.80
2023-04-10T23:57:07.382Z,13.70
2023-04-10T23:59:34.164Z,13.70
